createdAt,value
2023-04-10T00:01:35.735Z,100.00
2023-04-10T00:04:03.877Z,100.00
2023-04-10T00:06:32.012Z,100.00
2023-04-10T00:08:59.913Z,100.00
2023-04-10T00:11:27.973Z,100.00
2023-04-10T00:13:57.439Z,100.00
2023-04-10T00:16:25.310Z,100.00
2023-04-10T00:18:53.099Z,100.00
2023-04-10T00:21:20.800Z,100.00
2023-04-10T00:23:48.503Z,100.00
2023-04-10T00:26:16.238Z,100.00
2023-04-10T00:28:43.960Z,100.00
2023-04-10T00:31:13.189Z,100.00
2023-04-10T00:33:40.968Z,100.00
2023-04-10T00:36:09.044Z,100.00
2023-04-10T00:38:37.945Z,100.00
2023-04-10T00:41:06.409Z,100.00
2023-04-10T00:43:34.229Z,100.00
2023-04-10T00:46:02.217Z,100.00
2023-04-10T00:48:31.476Z,100.00
2023-04-10T00:50:59.636Z,100.00
2023-04-10T00:53:27.643Z,100.00
2023-04-10T00:55:56.782Z,100.00
2023-04-10T00:58:24.533Z,100.00
2023-04-10T01:00:53.011Z,100.00
2023-04-10T01:03:22.728Z,100.00
2023-04-10T01:05:58.906Z,100.00
2023-04-10T01:08:40.754Z,100.00
2023-04-10T01:11:13.068Z,100.00
2023-04-10T01:13:46.434Z,100.00
2023-04-10T01:16:20.383Z,100.00
2023-04-10T01:18:55.152Z,100.00
2023-04-10T01:21:25.148Z,100.00
2023-04-10T01:24:09.026Z,100.00
2023-04-10T01:26:54.307Z,100.00
2023-04-10T01:29:28.012Z,100.00
2023-04-10T01:32:01.920Z,100.00
2023-04-10T01:34:37.019Z,100.00
2023-04-10T01:37:09.508Z,100.00
2023-04-10T01:39:42.631Z,100.00
2023-04-10T01:42:12.841Z,100.00
2023-04-10T01:44:43.681Z,100.00
2023-04-10T01:47:11.413Z,100.00
2023-04-10T01:49:44.494Z,100.00
2023-04-10T01:52:13.010Z,100.00
2023-04-10T01:54:41.351Z,100.00
2023-04-10T01:57:10.236Z,100.00
2023-04-10T01:59:39.001Z,100.00
2023-04-10T02:02:08.609Z,100.00
2023-04-10T02:04:36.507Z,100.00
2023-04-10T02:07:05.642Z,100.00
2023-04-10T02:09:45.289Z,100.00
2023-04-10T02:12:19.594Z,100.00
2023-04-10T02:14:48.698Z,100.00
2023-04-10T02:17:22.376Z,100.00
2023-04-10T02:19:52.512Z,100.00
2023-04-10T02:22:20.538Z,100.00
2023-04-10T02:24:48.547Z,100.00
2023-04-10T02:27:16.570Z,100.00
2023-04-10T02:29:44.353Z,100.00
2023-04-10T02:32:12.138Z,100.00
2023-04-10T02:34:44.163Z,100.00
2023-04-10T02:37:11.955Z,100.00
2023-04-10T02:39:39.651Z,100.00
2023-04-10T02:42:07.676Z,100.00
2023-04-10T02:44:35.631Z,100.00
2023-04-10T02:47:03.559Z,100.00
2023-04-10T02:49:31.644Z,100.00
2023-04-10T02:52:00.698Z,100.00
2023-04-10T02:54:28.649Z,100.00
2023-04-10T02:56:57.385Z,100.00
2023-04-10T02:59:25.643Z,100.00
2023-04-10T03:01:53.452Z,100.00
2023-04-10T03:04:21.381Z,100.00
2023-04-10T03:06:49.595Z,100.00
2023-04-10T03:09:18.677Z,100.00
2023-04-10T03:11:46.769Z,100.00
2023-04-10T03:14:14.820Z,100.00
2023-04-10T03:16:42.602Z,100.00
2023-04-10T03:19:10.458Z,100.00
2023-04-10T03:21:38.414Z,100.00
2023-04-10T03:24:06.759Z,100.00
2023-04-10T03:26:36.000Z,100.00
2023-04-10T03:29:03.793Z,100.00
2023-04-10T03:31:31.881Z,100.00
2023-04-10T03:34:00.000Z,100.00
2023-04-10T03:36:28.000Z,100.00
2023-04-10T03:38:55.859Z,100.00
2023-04-10T03:41:25.452Z,100.00
2023-04-10T03:43:55.133Z,100.00
2023-04-10T03:46:23.189Z,100.00
2023-04-10T03:48:52.861Z,100.00
2023-04-10T03:51:21.317Z,100.00
2023-04-10T03:53:49.050Z,100.00
2023-04-10T03:56:17.475Z,100.00
2023-04-10T03:58:45.248Z,100.00
2023-04-10T04:01:14.790Z,100.00
2023-04-10T04:03:43.183Z,100.00
2023-04-10T04:06:11.207Z,100.00
2023-04-10T04:08:39.341Z,100.00
2023-04-10T04:11:07.645Z,100.00
2023-04-10T04:13:35.919Z,100.00
2023-04-10T04:16:03.704Z,100.00
2023-04-10T04:18:33.072Z,100.00
2023-04-10T04:21:00.787Z,100.00
2023-04-10T04:23:28.604Z,100.00
2023-04-10T04:25:58.595Z,100.00
2023-04-10T04:28:27.530Z,100.00
2023-04-10T04:30:56.682Z,100.00
2023-04-10T04:33:24.483Z,100.00
2023-04-10T04:35:53.686Z,100.00
2023-04-10T04:38:21.444Z,100.00
2023-04-10T04:40:49.191Z,100.00
2023-04-10T04:43:16.998Z,100.00
2023-04-10T04:45:45.047Z,100.00
2023-04-10T04:48:12.841Z,100.00
2023-04-10T04:50:41.517Z,100.00
2023-04-10T04:53:11.288Z,100.00
2023-04-10T04:55:39.436Z,100.00
2023-04-10T04:58:07.172Z,100.00
2023-04-10T05:00:34.953Z,100.00
2023-04-10T05:03:02.979Z,100.00
2023-04-10T05:05:30.965Z,100.00
2023-04-10T05:07:58.694Z,100.00
2023-04-10T05:10:27.963Z,100.00
2023-04-10T05:12:55.695Z,100.00
2023-04-10T05:15:24.053Z,100.00
2023-04-10T05:17:53.159Z,100.00
2023-04-10T05:20:22.166Z,100.00
2023-04-10T05:22:53.054Z,100.00
2023-04-10T05:25:21.286Z,100.00
2023-04-10T05:27:50.677Z,100.00
2023-04-10T05:30:18.577Z,100.00
2023-04-10T05:32:46.985Z,100.00
2023-04-10T05:35:14.860Z,100.00
2023-04-10T05:37:42.610Z,100.00
2023-04-10T05:40:11.516Z,100.00
2023-04-10T05:42:39.259Z,100.00
2023-04-10T05:45:09.507Z,100.00
2023-04-10T05:47:37.358Z,100.00
2023-04-10T05:50:05.698Z,100.00
2023-04-10T05:52:33.770Z,100.00
2023-04-10T05:55:01.808Z,100.00
2023-04-10T05:57:30.819Z,100.00
2023-04-10T05:59:58.545Z,100.00
2023-04-10T06:02:28.151Z,100.00
2023-04-10T06:04:56.347Z,100.00
2023-04-10T06:07:24.406Z,100.00
2023-04-10T06:09:52.152Z,100.00
2023-04-10T06:12:19.875Z,100.00
2023-04-10T06:14:48.517Z,100.00
2023-04-10T06:17:16.282Z,100.00
2023-04-10T06:19:45.755Z,100.00
2023-04-10T06:22:13.502Z,100.00
2023-04-10T06:24:41.372Z,100.00
2023-04-10T06:27:09.270Z,100.00
2023-04-10T06:29:37.486Z,100.00
2023-04-10T06:32:05.328Z,100.00
2023-04-10T06:34:33.072Z,100.00
2023-04-10T06:37:02.200Z,100.00
2023-04-10T06:39:31.304Z,100.00
2023-04-10T06:41:59.368Z,100.00
2023-04-10T06:44:27.478Z,100.00
2023-04-10T06:46:55.489Z,100.00
2023-04-10T06:49:24.243Z,100.00
2023-04-10T06:51:52.082Z,100.00
2023-04-10T06:54:21.701Z,100.00
2023-04-10T06:56:49.607Z,100.00
2023-04-10T06:59:17.715Z,100.00
2023-04-10T07:01:45.778Z,100.00
2023-04-10T07:04:13.814Z,100.00
2023-04-10T07:06:41.933Z,100.00
2023-04-10T07:09:09.651Z,100.00
2023-04-10T07:11:40.331Z,93.56
2023-04-10T07:14:08.121Z,95.52
2023-04-10T07:16:36.224Z,92.33
2023-04-10T07:19:06.690Z,95.08
2023-04-10T07:21:34.610Z,92.38
2023-04-10T07:24:02.732Z,89.37
2023-04-10T07:26:30.562Z,79.04
2023-04-10T07:29:00.022Z,85.71
2023-04-10T07:31:28.005Z,80.80
2023-04-10T07:33:55.888Z,87.67
2023-04-10T07:36:23.716Z,75.69
2023-04-10T07:38:51.500Z,75.16
2023-04-10T07:41:19.300Z,75.45
2023-04-10T07:43:47.821Z,68.02
2023-04-10T07:46:17.766Z,63.80
2023-04-10T07:48:47.187Z,63.51
2023-04-10T07:51:14.912Z,65.08
2023-04-10T07:53:43.004Z,63.27
2023-04-10T07:56:17.245Z,63.77
2023-04-10T07:58:45.075Z,63.66
2023-04-10T08:01:13.455Z,66.90
2023-04-10T08:03:43.838Z,60.82
2023-04-10T08:06:12.892Z,60.73
2023-04-10T08:08:42.198Z,59.47
2023-04-10T08:11:24.796Z,60.03
2023-04-10T08:13:52.837Z,58.34
2023-04-10T08:16:24.055Z,57.29
2023-04-10T08:18:53.725Z,54.99
2023-04-10T08:21:23.349Z,58.05
2023-04-10T08:23:52.001Z,52.64
2023-04-10T08:26:21.248Z,53.90
2023-04-10T08:28:50.974Z,53.54
2023-04-10T08:31:19.173Z,53.82
2023-04-10T08:33:47.572Z,51.14
2023-04-10T08:36:19.818Z,49.56
2023-04-10T08:38:49.197Z,49.29
2023-04-10T08:41:19.292Z,50.77
2023-04-10T08:43:47.186Z,49.89
2023-04-10T08:46:15.529Z,49.07
2023-04-10T08:48:48.987Z,51.72
2023-04-10T08:51:26.023Z,49.61
2023-04-10T08:53:59.610Z,47.55
2023-04-10T08:56:28.442Z,46.06
2023-04-10T08:58:56.716Z,46.83
2023-04-10T09:01:25.588Z,48.38
2023-04-10T09:03:53.595Z,48.39
2023-04-10T09:06:23.077Z,47.25
2023-04-10T09:08:50.761Z,46.59
2023-04-10T09:11:18.518Z,45.88
2023-04-10T09:13:46.481Z,44.57
2023-04-10T09:16:15.984Z,45.24
2023-04-10T09:18:45.926Z,46.23
2023-04-10T09:21:15.758Z,46.37
2023-04-10T09:23:46.412Z,43.13
2023-04-10T09:26:25.348Z,42.10
2023-04-10T09:29:04.115Z,40.84
2023-04-10T09:31:34.523Z,38.74
2023-04-10T09:34:10.692Z,41.27
2023-04-10T09:36:38.958Z,43.12
2023-04-10T09:39:09.321Z,39.96
2023-04-10T09:41:47.709Z,40.49
2023-04-10T09:44:15.531Z,39.94
2023-04-10T09:46:43.693Z,40.52
2023-04-10T09:49:12.644Z,41.58
2023-04-10T09:51:40.596Z,43.50
2023-04-10T09:54:09.815Z,40.48
2023-04-10T09:56:40.766Z,40.49
2023-04-10T09:59:09.486Z,41.52
2023-04-10T10:01:41.186Z,43.52
2023-04-10T10:04:09.258Z,43.64
2023-04-10T10:06:40.269Z,42.99
2023-04-10T10:09:10.034Z,39.89
2023-04-10T10:11:37.910Z,39.06
2023-04-10T10:14:13.607Z,38.08
2023-04-10T10:16:47.333Z,37.93
2023-04-10T10:19:21.177Z,37.01
2023-04-10T10:21:49.850Z,37.85
2023-04-10T10:24:21.272Z,39.31
2023-04-10T10:26:49.956Z,39.02
2023-04-10T10:29:18.834Z,36.99
2023-04-10T10:31:48.233Z,36.43
2023-04-10T10:34:17.209Z,37.97
2023-04-10T10:36:44.966Z,38.47
2023-04-10T10:39:30.381Z,36.92
2023-04-10T10:42:07.507Z,35.71
2023-04-10T10:44:46.792Z,35.13
2023-04-10T10:47:19.046Z,34.59
2023-04-10T10:49:54.433Z,34.09
2023-04-10T10:52:41.946Z,34.13
2023-04-10T10:55:35.792Z,33.75
2023-04-10T10:58:06.152Z,31.57
2023-04-10T11:01:13.439Z,35.40
2023-04-10T11:03:41.856Z,33.71
2023-04-10T11:06:12.643Z,33.75
2023-04-10T11:08:46.037Z,31.85
2023-04-10T11:11:20.277Z,34.22
2023-04-10T11:14:18.388Z,34.86
2023-04-10T11:16:48.143Z,34.88
2023-04-10T11:19:19.275Z,32.88
2023-04-10T11:22:07.527Z,32.98
2023-04-10T11:24:59.066Z,33.75
2023-04-10T11:27:49.107Z,31.12
2023-04-10T11:30:31.156Z,32.71
2023-04-10T11:33:00.572Z,32.77
2023-04-10T11:35:29.174Z,30.66
2023-04-10T11:38:13.514Z,31.62
2023-04-10T11:40:58.578Z,32.09
2023-04-10T11:43:27.874Z,29.84
2023-04-10T11:46:03.628Z,30.30
2023-04-10T11:48:31.785Z,28.74
2023-04-10T11:51:01.658Z,30.86
2023-04-10T11:53:30.293Z,32.17
2023-04-10T11:55:58.711Z,31.18
2023-04-10T11:58:29.953Z,29.18
2023-04-10T12:01:01.529Z,28.87
2023-04-10T12:03:33.614Z,29.99
2023-04-10T12:06:01.669Z,29.19
2023-04-10T12:08:32.999Z,30.83
2023-04-10T12:11:00.932Z,30.88
2023-04-10T12:13:31.184Z,29.78
2023-04-10T12:16:00.480Z,28.67
2023-04-10T12:18:29.138Z,27.05
2023-04-10T12:20:57.749Z,29.84
2023-04-10T12:23:26.198Z,31.14
2023-04-10T12:26:06.712Z,30.65
2023-04-10T12:28:36.887Z,30.61
2023-04-10T12:31:05.232Z,30.36
2023-04-10T12:33:33.252Z,30.18
2023-04-10T12:36:01.581Z,29.84
2023-04-10T12:38:43.944Z,29.23
2023-04-10T12:41:12.762Z,30.32
2023-04-10T12:43:44.859Z,31.03
2023-04-10T12:46:24.862Z,31.46
2023-04-10T12:48:53.027Z,30.02
2023-04-10T12:51:20.977Z,33.11
2023-04-10T12:53:48.859Z,31.26
2023-04-10T12:56:18.234Z,32.98
2023-04-10T12:58:47.904Z,32.17
2023-04-10T13:01:15.733Z,33.46
2023-04-10T13:03:43.718Z,33.21
2023-04-10T13:06:11.629Z,34.06
2023-04-10T13:08:39.380Z,35.36
2023-04-10T13:11:07.379Z,36.09
2023-04-10T13:13:35.555Z,36.10
2023-04-10T13:16:04.829Z,35.45
2023-04-10T13:18:32.691Z,39.38
2023-04-10T13:21:00.541Z,40.25
2023-04-10T13:23:28.395Z,38.13
2023-04-10T13:25:56.813Z,35.22
2023-04-10T13:28:24.699Z,34.56
2023-04-10T13:30:52.504Z,34.45
2023-04-10T13:33:22.195Z,35.11
2023-04-10T13:35:50.004Z,34.37
2023-04-10T13:38:19.830Z,35.66
2023-04-10T13:40:48.520Z,33.64
2023-04-10T13:43:16.345Z,33.73
2023-04-10T13:45:44.113Z,33.84
2023-04-10T13:48:11.914Z,34.13
2023-04-10T13:50:41.139Z,33.85
2023-04-10T13:53:10.301Z,34.70
2023-04-10T13:55:38.936Z,33.51
2023-04-10T13:58:07.429Z,34.49
2023-04-10T14:00:35.280Z,33.59
2023-04-10T14:03:03.675Z,32.88
2023-04-10T14:05:31.612Z,34.34
2023-04-10T14:08:01.097Z,31.27
2023-04-10T14:10:29.272Z,31.09
2023-04-10T14:12:57.405Z,31.45
2023-04-10T14:15:25.239Z,30.66
2023-04-10T14:17:52.978Z,32.20
2023-04-10T14:20:21.066Z,32.95
2023-04-10T14:22:49.425Z,34.41
2023-04-10T14:25:18.866Z,34.93
2023-04-10T14:27:46.995Z,35.51
2023-04-10T14:30:14.914Z,33.72
2023-04-10T14:32:43.868Z,34.09
2023-04-10T14:35:12.197Z,33.56
2023-04-10T14:37:40.108Z,33.51
2023-04-10T14:40:09.085Z,32.17
2023-04-10T14:42:38.175Z,34.38
2023-04-10T14:45:06.640Z,35.57
2023-04-10T14:47:35.993Z,37.20
2023-04-10T14:50:04.072Z,36.78
2023-04-10T14:52:31.831Z,37.96
2023-04-10T14:54:59.794Z,37.20
2023-04-10T14:57:29.829Z,37.93
2023-04-10T15:00:01.232Z,37.39
2023-04-10T15:02:30.141Z,36.55
2023-04-10T15:04:58.028Z,35.86
2023-04-10T15:07:27.622Z,36.96
2023-04-10T15:09:57.873Z,34.63
2023-04-10T15:12:25.846Z,36.28
2023-04-10T15:14:53.948Z,36.66
2023-04-10T15:17:24.666Z,37.01
2023-04-10T15:19:52.549Z,35.14
2023-04-10T15:22:20.387Z,37.35
2023-04-10T15:24:50.788Z,39.14
2023-04-10T15:27:21.249Z,38.24
2023-04-10T15:29:49.667Z,37.50
2023-04-10T15:32:17.620Z,36.59
2023-04-10T15:34:46.742Z,37.56
2023-04-10T15:37:14.483Z,38.27
2023-04-10T15:39:42.343Z,35.17
2023-04-10T15:42:10.172Z,36.46
2023-04-10T15:44:37.914Z,35.05
2023-04-10T15:47:05.746Z,35.88
2023-04-10T15:49:37.636Z,36.09
2023-04-10T15:52:07.911Z,36.10
2023-04-10T15:54:35.781Z,38.25
2023-04-10T15:57:05.035Z,35.97
2023-04-10T15:59:33.827Z,39.55
2023-04-10T16:02:01.682Z,42.90
2023-04-10T16:04:30.066Z,42.14
2023-04-10T16:06:58.096Z,39.12
2023-04-10T16:09:27.344Z,39.70
2023-04-10T16:11:56.099Z,41.09
2023-04-10T16:14:24.072Z,42.27
2023-04-10T16:16:51.999Z,43.44
2023-04-10T16:19:19.845Z,41.48
2023-04-10T16:21:47.586Z,42.28
2023-04-10T16:24:15.484Z,41.56
2023-04-10T16:26:44.643Z,43.90
2023-04-10T16:29:12.411Z,43.33
2023-04-10T16:31:40.367Z,45.83
2023-04-10T16:34:08.525Z,46.57
2023-04-10T16:36:36.331Z,49.92
2023-04-10T16:39:04.343Z,46.76
2023-04-10T16:41:32.270Z,45.08
2023-04-10T16:44:01.355Z,47.06
2023-04-10T16:46:29.201Z,46.15
2023-04-10T16:48:57.352Z,46.72
2023-04-10T16:51:25.647Z,43.59
2023-04-10T16:53:53.631Z,43.40
2023-04-10T16:56:21.468Z,47.81
2023-04-10T16:58:49.526Z,47.07
2023-04-10T17:01:21.068Z,48.26
2023-04-10T17:03:49.342Z,47.06
2023-04-10T17:06:17.551Z,48.06
2023-04-10T17:08:45.644Z,48.92
2023-04-10T17:11:13.791Z,47.95
2023-04-10T17:13:42.130Z,49.63
2023-04-10T17:16:10.742Z,49.54
2023-04-10T17:18:39.929Z,49.66
2023-04-10T17:21:11.865Z,49.20
2023-04-10T17:23:39.761Z,43.98
2023-04-10T17:26:08.059Z,46.40
2023-04-10T17:28:35.958Z,48.88
2023-04-10T17:31:03.685Z,52.45
2023-04-10T17:33:31.528Z,50.35
2023-04-10T17:36:00.672Z,51.64
2023-04-10T17:38:28.560Z,50.27
2023-04-10T17:40:56.343Z,52.10
2023-04-10T17:43:24.096Z,54.46
2023-04-10T17:45:51.896Z,50.31
2023-04-10T17:48:19.778Z,52.08
2023-04-10T17:50:48.152Z,52.78
2023-04-10T17:53:17.282Z,59.04
2023-04-10T17:55:45.649Z,55.20
2023-04-10T17:58:13.458Z,57.77
2023-04-10T18:00:42.883Z,55.36
2023-04-10T18:03:11.109Z,56.94
2023-04-10T18:05:39.748Z,62.63
2023-04-10T18:08:08.745Z,61.13
2023-04-10T18:10:38.044Z,60.13
2023-04-10T18:13:05.749Z,62.95
2023-04-10T18:15:33.598Z,63.38
2023-04-10T18:18:01.392Z,63.09
2023-04-10T18:20:29.172Z,63.15
2023-04-10T18:22:57.040Z,69.21
2023-04-10T18:25:24.852Z,64.99
2023-04-10T18:28:13.074Z,68.15
2023-04-10T18:30:41.986Z,69.93
2023-04-10T18:33:11.253Z,68.08
2023-04-10T18:35:39.546Z,70.34
2023-04-10T18:38:07.539Z,71.00
2023-04-10T18:40:36.860Z,73.93
2023-04-10T18:43:06.368Z,73.49
2023-04-10T18:45:36.448Z,71.83
2023-04-10T18:48:04.377Z,76.41
2023-04-10T18:50:35.098Z,80.45
2023-04-10T18:53:05.990Z,76.81
2023-04-10T18:55:33.790Z,78.75
2023-04-10T18:58:01.579Z,82.63
2023-04-10T19:00:31.992Z,80.30
2023-04-10T19:03:00.122Z,80.99
2023-04-10T19:05:28.095Z,77.65
2023-04-10T19:08:03.744Z,78.45
2023-04-10T19:10:32.537Z,78.45
2023-04-10T19:13:00.539Z,89.68
2023-04-10T19:15:28.293Z,81.69
2023-04-10T19:17:57.555Z,80.21
2023-04-10T19:20:51.230Z,80.65
2023-04-10T19:23:13.194Z,85.37
2023-04-10T19:25:41.000Z,85.78
2023-04-10T19:28:08.751Z,78.92
2023-04-10T19:30:36.463Z,75.70
2023-04-10T19:33:05.728Z,80.21
2023-04-10T19:35:33.706Z,72.96
2023-04-10T19:38:01.532Z,73.06
2023-04-10T19:40:31.512Z,75.88
2023-04-10T19:43:00.495Z,73.21
2023-04-10T19:45:29.221Z,77.80
2023-04-10T19:47:57.766Z,77.21
2023-04-10T19:50:29.420Z,79.93
2023-04-10T19:52:57.221Z,78.98
2023-04-10T19:55:25.123Z,80.50
2023-04-10T19:57:52.913Z,75.80
2023-04-10T20:00:20.700Z,78.69
2023-04-10T20:02:48.524Z,80.06
2023-04-10T20:05:16.512Z,84.22
2023-04-10T20:07:46.060Z,78.19
2023-04-10T20:10:13.857Z,73.19
2023-04-10T20:12:41.634Z,76.59
2023-04-10T20:15:10.578Z,77.42
2023-04-10T20:17:39.048Z,83.30
2023-04-10T20:20:07.980Z,77.09
2023-04-10T20:22:35.733Z,80.67
2023-04-10T20:25:05.217Z,78.40
2023-04-10T20:27:32.982Z,73.05
2023-04-10T20:30:00.746Z,78.25
2023-04-10T20:32:28.593Z,83.05
2023-04-10T20:34:56.464Z,75.84
2023-04-10T20:37:24.217Z,78.87
2023-04-10T20:39:52.159Z,74.56
2023-04-10T20:42:23.304Z,81.92
2023-04-10T20:44:51.080Z,82.50
2023-04-10T20:47:20.327Z,84.15
2023-04-10T20:49:48.101Z,84.04
2023-04-10T20:52:15.899Z,82.13
2023-04-10T20:54:43.936Z,84.23
2023-04-10T20:57:12.135Z,90.23
2023-04-10T20:59:41.346Z,85.85
2023-04-10T21:02:14.482Z,82.95
2023-04-10T21:04:44.781Z,79.29
2023-04-10T21:07:13.119Z,84.92
2023-04-10T21:09:41.024Z,85.23
2023-04-10T21:12:08.960Z,88.12
2023-04-10T21:14:36.827Z,81.88
2023-04-10T21:17:06.094Z,84.08
2023-04-10T21:19:33.972Z,75.26
2023-04-10T21:22:01.805Z,86.62
2023-04-10T21:24:29.691Z,79.41
2023-04-10T21:26:57.541Z,81.69
2023-04-10T21:29:25.709Z,80.81
2023-04-10T21:31:53.544Z,84.97
2023-04-10T21:34:23.386Z,84.25
2023-04-10T21:36:51.210Z,86.15
2023-04-10T21:39:19.009Z,86.86
2023-04-10T21:41:46.731Z,94.17
2023-04-10T21:44:14.493Z,92.42
2023-04-10T21:46:42.555Z,94.51
2023-04-10T21:49:10.408Z,92.14
2023-04-10T21:51:40.443Z,98.19
2023-04-10T21:54:08.275Z,96.00
2023-04-10T21:56:38.591Z,95.66
2023-04-10T21:59:06.726Z,92.17
2023-04-10T22:01:34.779Z,92.74
2023-04-10T22:04:03.322Z,91.19
2023-04-10T22:06:31.531Z,96.81
2023-04-10T22:09:00.680Z,90.74
2023-04-10T22:11:28.538Z,80.52
2023-04-10T22:13:58.155Z,89.06
2023-04-10T22:16:28.223Z,89.17
2023-04-10T22:18:56.466Z,83.34
2023-04-10T22:21:25.126Z,82.83
2023-04-10T22:23:52.924Z,75.38
2023-04-10T22:26:22.197Z,71.56
2023-04-10T22:28:49.932Z,67.46
2023-04-10T22:31:18.295Z,63.82
2023-04-10T22:33:46.582Z,66.30
2023-04-10T22:36:14.425Z,61.25
2023-04-10T22:38:42.173Z,60.42
2023-04-10T22:41:10.858Z,61.92
2023-04-10T22:43:40.010Z,58.37
2023-04-10T22:46:08.334Z,55.24
2023-04-10T22:48:36.160Z,55.61
2023-04-10T22:51:04.295Z,56.33
2023-04-10T22:53:32.046Z,54.55
2023-04-10T22:55:59.880Z,52.80
2023-04-10T22:58:27.621Z,55.95
2023-04-10T23:00:56.762Z,54.11
2023-04-10T23:03:24.746Z,56.37
2023-04-10T23:05:52.766Z,56.48
2023-04-10T23:08:20.559Z,54.71
2023-04-10T23:10:48.399Z,53.77
2023-04-10T23:13:16.468Z,55.62
2023-04-10T23:15:50.034Z,53.62
2023-04-10T23:18:19.961Z,54.27
2023-04-10T23:20:47.868Z,54.87
2023-04-10T23:23:16.234Z,53.23
2023-04-10T23:25:44.026Z,55.00
2023-04-10T23:28:11.752Z,53.41
2023-04-10T23:30:42.086Z,53.06
2023-04-10T23:33:09.835Z,53.29
2023-04-10T23:35:38.965Z,53.51
2023-04-10T23:38:06.815Z,56.39
2023-04-10T23:40:34.725Z,55.35
2023-04-10T23:43:02.769Z,56.20
2023-04-10T23:45:30.589Z,55.06
2023-04-10T23:47:58.648Z,55.72
2023-04-10T23:50:27.428Z,52.44
2023-04-10T23:52:56.668Z,54.75
2023-04-10T23:55:24.461Z,55.40
2023-04-10T23:57:52.243Z,57.02
